Time;durP1;ratioP1;P1;durP2;ratioP2;P2;SDS_P1;SDS_P2;PMS_P1;PMS_P2;Temp;Humidity;BMP_temperature;BMP_pressure;BME280_temperature;BME280_humidity;BME280_pressure;Samples;Min_cycle;Max_cycle;Signal;HPM_P1;HPM_P2
2022/07/09 04:02:24;;;;;;;8.50;5.90;;;15.60;99.90;;;;;;5075572;23;21050;-65
2022/07/09 04:04:51;;;;;;;6.07;4.93;;;15.60;99.90;;;;;;4965875;28;20460;-65
2022/07/09 04:07:17;;;;;;;7.60;5.00;;;15.60;99.90;;;;;;4972729;28;20456;-67
2022/07/09 04:09:44;;;;;;;9.33;5.20;;;15.60;99.90;;;;;;4971669;28;20475;-66
2022/07/09 04:12:11;;;;;;;10.97;6.27;;;15.70;99.90;;;;;;4956388;28;20491;-65
2022/07/09 04:14:37;;;;;;;6.33;5.47;;;15.70;99.90;;;;;;4953176;29;20464;-66
2022/07/09 04:17:05;;;;;;;7.10;4.80;;;15.70;99.90;;;;;;4953406;29;20499;-66
2022/07/09 04:19:33;;;;;;;5.70;4.67;;;15.70;99.90;;;;;;4953282;29;20495;-66
2022/07/09 04:22:02;;;;;;;4.83;4.50;;;15.70;99.90;;;;;;4953097;28;20580;-66
2022/07/09 04:24:28;;;;;;;4.90;4.57;;;15.80;99.90;;;;;;4952924;29;20830;-66
2022/07/09 04:26:55;;;;;;;7.10;4.63;;;15.70;99.90;;;;;;4951646;29;20468;-66
2022/07/09 04:29:22;;;;;;;4.93;4.00;;;15.80;99.90;;;;;;4952661;29;20476;-66
2022/07/09 04:31:49;;;;;;;5.77;4.30;;;15.80;99.90;;;;;;4953169;28;20496;-66
2022/07/09 04:34:15;;;;;;;4.80;4.40;;;15.80;99.90;;;;;;4952866;29;21044;-66
2022/07/09 04:36:44;;;;;;;4.93;4.53;;;15.90;99.90;;;;;;4953266;29;20492;-66
2022/07/09 04:39:10;;;;;;;4.10;3.80;;;15.90;99.90;;;;;;4953183;29;20991;-66
2022/07/09 04:41:37;;;;;;;7.27;4.20;;;16.00;99.90;;;;;;4955596;28;20597;-65
2022/07/09 04:44:04;;;;;;;4.37;4.03;;;16.00;99.90;;;;;;4954766;29;20472;-65
2022/07/09 04:46:32;;;;;;;5.67;4.83;;;16.10;99.90;;;;;;4954322;28;20468;-66
2022/07/09 04:48:58;;;;;;;6.70;4.50;;;16.10;99.90;;;;;;4954629;29;20471;-65
2022/07/09 04:51:25;;;;;;;4.40;4.10;;;16.10;99.90;;;;;;4954611;28;20591;-65
2022/07/09 04:53:53;;;;;;;3.70;3.10;;;16.10;99.90;;;;;;4953626;29;20464;-66
2022/07/09 04:56:20;;;;;;;4.33;3.97;;;16.20;99.90;;;;;;4952331;29;20802;-66
2022/07/09 04:58:52;;;;;;;4.80;3.50;;;16.30;99.90;;;;;;4952555;29;20492;-65
2022/07/09 05:01:19;;;;;;;5.80;4.90;;;16.40;99.90;;;;;;4952202;28;20508;-66
2022/07/09 05:03:46;;;;;;;4.70;3.70;;;16.50;99.90;;;;;;4951948;29;20460;-65
2022/07/09 05:06:13;;;;;;;3.67;3.40;;;16.60;99.90;;;;;;4949936;29;20528;-66
2022/07/09 05:08:40;;;;;;;3.97;3.67;;;16.60;99.90;;;;;;4951849;29;20471;-66
2022/07/09 05:11:09;;;;;;;6.37;4.27;;;16.70;99.90;;;;;;4952569;28;20520;-66
2022/07/09 05:13:36;;;;;;;3.90;3.60;;;16.80;99.90;;;;;;4952185;29;20521;-65
2022/07/09 05:16:03;;;;;;;4.80;4.50;;;16.80;99.90;;;;;;4952022;29;20475;-66
2022/07/09 05:18:30;;;;;;;3.50;3.23;;;16.70;99.90;;;;;;4951224;28;20845;-65
2022/07/09 05:20:57;;;;;;;8.77;3.87;;;16.70;99.90;;;;;;4951856;28;20499;-66
2022/07/09 05:23:24;;;;;;;4.00;3.63;;;16.70;99.90;;;;;;4951715;29;20468;-65
2022/07/09 05:25:51;;;;;;;6.13;4.13;;;16.70;99.90;;;;;;4951795;29;20471;-65
2022/07/09 05:28:19;;;;;;;5.70;4.87;;;16.70;99.90;;;;;;4951784;29;20464;-65
2022/07/09 05:30:46;;;;;;;5.10;3.80;;;16.70;99.90;;;;;;4951791;28;20485;-65
2022/07/09 05:33:12;;;;;;;3.50;3.20;;;16.70;99.90;;;;;;4951538;29;20992;-66
2022/07/09 05:35:40;;;;;;;4.70;3.40;;;16.70;99.90;;;;;;4951676;29;20471;-66
2022/07/09 05:38:06;;;;;;;4.73;3.97;;;16.70;99.90;;;;;;4952059;29;20484;-66
2022/07/09 05:40:33;;;;;;;3.80;3.23;;;16.70;99.90;;;;;;4951879;28;20480;-66
2022/07/09 05:43:00;;;;;;;4.07;3.73;;;16.70;99.90;;;;;;4951682;29;20471;-66
2022/07/09 05:45:28;;;;;;;3.90;3.60;;;16.80;99.90;;;;;;4948983;29;20992;-66
2022/07/09 05:47:54;;;;;;;6.80;3.30;;;16.90;99.90;;;;;;4950960;29;20463;-66
2022/07/09 05:50:21;;;;;;;3.67;3.47;;;17.00;99.90;;;;;;4950225;28;20476;-66
2022/07/09 05:52:48;;;;;;;3.57;3.30;;;17.10;99.90;;;;;;4949581;29;20472;-66
2022/07/09 05:55:15;;;;;;;2.70;2.50;;;17.20;99.90;;;;;;4952150;29;20968;-66
2022/07/09 05:57:41;;;;;;;5.47;3.50;;;17.30;99.90;;;;;;4952000;28;20481;-66
2022/07/09 06:00:09;;;;;;;5.77;3.50;;;17.50;99.90;;;;;;4954400;29;20774;-66
2022/07/09 06:02:37;;;;;;;3.00;2.90;;;17.50;99.90;;;;;;4947205;29;20603;-66
2022/07/09 06:05:05;;;;;;;4.67;2.83;;;17.70;99.90;;;;;;4955215;29;20461;-67
2022/07/09 06:07:31;;;;;;;2.77;2.57;;;17.70;99.90;;;;;;4954389;29;20940;-66
2022/07/09 06:09:58;;;;;;;3.53;3.10;;;17.80;99.90;;;;;;4955715;29;20472;-65
2022/07/09 06:12:25;;;;;;;3.20;3.10;;;17.80;99.90;;;;;;4955630;28;20484;-65
2022/07/09 06:14:51;;;;;;;4.20;3.20;;;17.90;99.90;;;;;;4953921;28;20498;-64
2022/07/09 06:17:18;;;;;;;3.33;2.97;;;17.90;99.90;;;;;;4957185;28;20479;-65
2022/07/09 06:19:46;;;;;;;6.60;2.77;;;17.90;99.90;;;;;;4955077;29;20531;-66
2022/07/09 06:22:13;;;;;;;3.00;2.90;;;17.90;99.90;;;;;;4955574;28;20724;-67
2022/07/09 06:24:39;;;;;;;3.60;3.30;;;17.90;99.90;;;;;;4954974;29;20461;-65
2022/07/09 06:27:06;;;;;;;3.30;2.50;;;17.80;99.90;;;;;;4951285;29;20473;-66
2022/07/09 06:29:33;;;;;;;4.90;3.50;;;17.80;99.90;;;;;;4953511;29;20981;-65
2022/07/09 06:32:00;;;;;;;3.70;3.00;;;17.70;99.90;;;;;;4955300;28;20488;-65
2022/07/09 06:34:27;;;;;;;6.33;3.43;;;17.70;99.90;;;;;;4950230;29;20559;-67
2022/07/09 06:36:55;;;;;;;3.93;3.63;;;17.70;99.90;;;;;;4954544;29;20555;-66
2022/07/09 06:42:07;;;;;;;3.90;3.60;;;17.90;99.90;;;;;;4950883;28;21097;-67
2022/07/09 06:44:34;;;;;;;3.17;3.00;;;17.80;99.90;;;;;;4952122;29;20476;-66
2022/07/09 06:47:01;;;;;;;3.00;2.90;;;17.90;99.90;;;;;;4954860;28;20479;-66
2022/07/09 06:49:28;;;;;;;3.10;2.97;;;17.90;99.90;;;;;;4954701;29;20464;-66
2022/07/09 06:51:57;;;;;;;5.67;3.70;;;18.10;99.90;;;;;;4954124;28;20499;-67
2022/07/09 06:54:23;;;;;;;3.70;3.60;;;18.20;99.90;;;;;;4953505;29;20495;-67
2022/07/09 06:56:50;;;;;;;3.47;3.27;;;18.20;99.90;;;;;;4944572;29;20472;-66
2022/07/09 06:59:18;;;;;;;3.57;3.37;;;18.30;99.90;;;;;;4953608;29;20496;-66
2022/07/09 07:01:45;;;;;;;5.00;4.50;;;18.30;99.90;;;;;;4950900;28;20602;-67
2022/07/09 07:04:12;;;;;;;4.00;3.90;;;18.40;99.90;;;;;;4955089;29;20472;-66
2022/07/09 07:06:39;;;;;;;4.70;4.40;;;18.40;99.90;;;;;;4954806;29;20544;-66
2022/07/09 07:09:07;;;;;;;4.13;3.83;;;18.50;99.90;;;;;;4952985;28;20839;-67
2022/07/09 07:11:34;;;;;;;4.20;4.00;;;18.50;99.90;;;;;;4953219;28;20977;-66
2022/07/09 07:14:01;;;;;;;5.10;4.70;;;18.70;99.90;;;;;;4954794;29;20465;-67
2022/07/09 07:16:28;;;;;;;4.37;3.97;;;18.90;99.90;;;;;;4954413;29;20464;-66
2022/07/09 07:18:55;;;;;;;3.87;3.77;;;19.20;99.90;;;;;;4950166;29;20499;-68
2022/07/09 07:21:22;;;;;;;4.03;3.73;;;19.60;99.90;;;;;;4953826;28;21000;-67
2022/07/09 07:23:48;;;;;;;4.70;4.07;;;19.80;99.90;;;;;;4952873;29;20483;-65
2022/07/09 07:26:16;;;;;;;3.77;3.60;;;19.90;99.90;;;;;;4954000;29;20464;-64
2022/07/09 07:28:43;;;;;;;4.00;3.90;;;20.00;99.90;;;;;;4954184;29;20958;-64
2022/07/09 07:31:10;;;;;;;4.10;3.90;;;20.00;99.90;;;;;;4953935;28;20567;-64
2022/07/09 07:33:38;;;;;;;3.57;3.30;;;19.90;99.90;;;;;;4945327;29;20474;-66
2022/07/09 07:36:05;;;;;;;4.00;3.80;;;19.80;99.90;;;;;;4952732;29;21060;-67
2022/07/09 07:38:32;;;;;;;3.93;3.63;;;19.60;99.90;;;;;;4954160;29;20480;-66
2022/07/09 07:40:59;;;;;;;4.00;3.80;;;19.40;99.90;;;;;;4946116;28;20489;-66
2022/07/09 07:43:27;;;;;;;4.40;4.17;;;19.40;99.90;;;;;;4947384;29;20473;-66
2022/07/09 07:45:53;;;;;;;4.70;4.40;;;19.60;99.90;;;;;;4947093;29;20953;-67
2022/07/09 07:48:20;;;;;;;3.90;3.77;;;19.70;99.90;;;;;;4953772;29;20465;-67
2022/07/09 07:50:47;;;;;;;4.57;4.23;;;19.70;99.90;;;;;;4953378;28;20492;-66
2022/07/09 07:53:13;;;;;;;3.70;3.43;;;19.80;99.90;;;;;;4952876;29;20491;-67
2022/07/09 07:55:40;;;;;;;3.77;3.47;;;19.90;99.90;;;;;;4953592;29;20479;-66
2022/07/09 07:58:07;;;;;;;4.83;3.77;;;20.00;99.90;;;;;;4953994;29;20840;-67
2022/07/09 08:00:36;;;;;;;3.60;3.50;;;20.10;99.90;;;;;;4953148;28;20499;-66
2022/07/09 08:03:03;;;;;;;3.40;3.30;;;20.30;99.90;;;;;;4945040;29;20560;-67
2022/07/09 08:05:29;;;;;;;3.40;3.40;;;20.30;99.90;;;;;;4951769;29;20472;-66
2022/07/09 08:07:56;;;;;;;4.10;4.00;;;20.50;99.90;;;;;;4953785;29;20468;-64
2022/07/09 08:10:24;;;;;;;3.77;3.50;;;20.60;99.90;;;;;;4952947;28;20468;-64
2022/07/09 08:12:50;;;;;;;3.50;3.37;;;20.60;99.90;;;;;;4952763;29;20477;-65
2022/07/09 08:15:17;;;;;;;3.03;3.03;;;20.70;99.90;;;;;;4952876;29;20500;-65
2022/07/09 08:17:45;;;;;;;3.50;3.30;;;20.80;99.90;;;;;;4953622;29;20464;-64
2022/07/09 08:20:12;;;;;;;3.03;2.93;;;20.80;99.90;;;;;;4953116;29;20512;-64
2022/07/09 08:22:39;;;;;;;3.10;2.93;;;20.80;99.90;;;;;;4946281;28;20969;-64
2022/07/09 08:25:06;;;;;;;2.83;2.83;;;21.00;99.90;;;;;;4952785;29;20513;-65
2022/07/09 08:27:33;;;;;;;3.20;3.10;;;21.00;99.90;;;;;;4953560;28;20475;-64
2022/07/09 08:30:00;;;;;;;3.50;3.40;;;20.80;99.90;;;;;;4952577;29;20464;-64
2022/07/09 08:32:26;;;;;;;2.83;2.73;;;20.80;99.90;;;;;;4952742;28;20514;-64
2022/07/09 08:34:55;;;;;;;2.90;2.70;;;21.20;99.90;;;;;;4952166;29;20472;-64
2022/07/09 08:37:22;;;;;;;2.37;2.27;;;21.80;99.90;;;;;;4951811;29;20588;-64
2022/07/09 08:39:48;;;;;;;2.00;2.00;;;22.00;99.90;;;;;;4952974;29;20492;-65
2022/07/09 08:42:16;;;;;;;2.90;2.80;;;22.10;99.90;;;;;;4952238;28;20484;-65
2022/07/09 08:44:47;;;;;;;2.57;2.40;;;22.00;99.90;;;;;;4952574;29;20457;-65
2022/07/09 08:47:15;;;;;;;3.00;2.90;;;21.80;99.90;;;;;;4952962;29;20560;-65
2022/07/09 08:49:43;;;;;;;2.93;2.73;;;21.50;99.90;;;;;;4951895;29;20457;-65
2022/07/09 08:52:11;;;;;;;2.73;2.63;;;21.40;99.90;;;;;;4948116;29;20480;-66
2022/07/09 08:54:39;;;;;;;2.70;2.50;;;21.30;99.90;;;;;;4952539;29;20504;-66
2022/07/09 08:57:06;;;;;;;3.07;2.87;;;21.40;99.90;;;;;;4952805;29;20961;-65
2022/07/09 08:59:34;;;;;;;2.87;2.80;;;21.50;99.90;;;;;;4952670;29;20480;-65
2022/07/09 09:02:05;;;;;;;2.47;2.33;;;21.60;99.90;;;;;;4952707;28;20512;-66
2022/07/09 09:04:34;;;;;;;2.70;2.70;;;21.70;99.90;;;;;;4951960;28;20497;-66
2022/07/09 09:07:00;;;;;;;3.30;3.00;;;21.50;99.90;;;;;;4953002;29;20460;-66
2022/07/09 09:09:28;;;;;;;2.87;2.87;;;21.40;99.90;;;;;;4953944;29;20464;-65
2022/07/09 09:11:58;;;;;;;3.37;3.20;;;21.40;99.90;;;;;;4953458;28;20496;-65
2022/07/09 09:14:25;;;;;;;3.10;2.90;;;21.50;99.90;;;;;;4952008;29;20985;-65
2022/07/09 09:16:52;;;;;;;3.00;2.80;;;21.80;99.90;;;;;;4951808;28;20574;-65
2022/07/09 09:19:18;;;;;;;2.90;2.70;;;22.00;99.90;;;;;;4952209;29;21024;-65
2022/07/09 09:21:53;;;;;;;3.23;3.03;;;22.00;99.90;;;;;;4949330;28;20512;-65
2022/07/09 09:24:24;;;;;;;2.70;2.57;;;22.30;99.90;;;;;;4951732;29;20472;-65
2022/07/09 09:26:52;;;;;;;3.20;3.10;;;22.40;99.90;;;;;;4944901;29;20555;-66
2022/07/09 09:29:18;;;;;;;2.40;2.37;;;22.40;99.90;;;;;;4952398;29;20467;-65
2022/07/09 09:31:48;;;;;;;2.20;2.20;;;22.40;99.90;;;;;;4952331;28;20485;-66
2022/07/09 09:34:16;;;;;;;4.57;3.37;;;22.30;99.90;;;;;;4957032;28;20476;-66
2022/07/09 09:36:44;;;;;;;3.23;2.97;;;22.30;99.90;;;;;;4945180;29;20468;-66
2022/07/09 09:39:13;;;;;;;3.00;2.70;;;22.30;99.90;;;;;;4953200;29;20488;-66
2022/07/09 09:41:41;;;;;;;2.43;2.33;;;22.10;99.90;;;;;;4953657;28;20484;-65
2022/07/09 09:44:12;;;;;;;2.97;2.70;;;22.30;99.90;;;;;;4958126;29;20461;-66
2022/07/09 09:46:40;;;;;;;2.67;2.47;;;22.30;99.90;;;;;;4958989;29;20459;-66
2022/07/09 09:49:09;;;;;;;2.43;2.23;;;22.20;99.90;;;;;;4955658;29;20487;-66
2022/07/09 09:51:37;;;;;;;2.80;2.70;;;22.10;99.90;;;;;;4957593;28;20499;-66
2022/07/09 09:54:05;;;;;;;2.30;2.30;;;22.10;99.90;;;;;;4958317;29;20475;-65
2022/07/09 09:56:32;;;;;;;2.30;2.20;;;22.10;99.90;;;;;;4958200;29;20803;-65
2022/07/09 09:59:00;;;;;;;2.23;2.13;;;22.30;99.90;;;;;;4957396;28;20847;-66
2022/07/09 10:01:29;;;;;;;2.40;2.40;;;22.20;99.90;;;;;;4957945;28;20856;-66
2022/07/09 10:03:57;;;;;;;2.10;2.10;;;22.20;99.90;;;;;;4958122;29;20475;-65
2022/07/09 10:06:24;;;;;;;2.30;2.20;;;22.30;99.90;;;;;;4958440;29;20554;-65
2022/07/09 10:08:52;;;;;;;2.30;2.23;;;22.10;99.90;;;;;;4957430;28;20496;-66
2022/07/09 10:11:18;;;;;;;4.70;2.47;;;22.30;99.90;;;;;;4954456;28;20828;-66
2022/07/09 10:13:53;;;;;;;2.10;2.10;;;22.40;99.90;;;;;;4974587;23;20453;-70
2022/07/09 10:16:31;;;;;;;2.07;1.97;;;22.60;99.90;;;;;;4977389;28;20463;-69
2022/07/09 10:18:59;;;;;;;1.90;1.90;;;22.80;99.90;;;;;;4976455;28;20487;-70
2022/07/09 10:21:37;;;;;;;2.00;2.00;;;22.70;99.90;;;;;;4977093;28;20468;-71
2022/07/09 10:24:05;;;;;;;2.30;2.03;;;22.50;99.90;;;;;;4970527;28;20484;-70
2022/07/09 10:26:47;;;;;;;2.17;2.07;;;22.20;99.90;;;;;;4939198;29;20958;-70
2022/07/09 10:29:22;;;;;;;2.17;1.90;;;22.10;99.90;;;;;;4952640;29;20552;-70
2022/07/09 10:31:49;;;;;;;3.27;1.80;;;22.20;99.90;;;;;;4958919;28;20492;-71
2022/07/09 10:34:32;;;;;;;2.30;1.70;;;22.30;99.90;;;;;;4954607;28;20499;-70
2022/07/09 10:36:59;;;;;;;1.87;1.60;;;22.30;99.90;;;;;;4960778;28;20464;-69
2022/07/09 10:39:26;;;;;;;1.53;1.43;;;22.30;99.90;;;;;;4953454;28;20523;-69
2022/07/09 10:42:00;;;;;;;1.83;1.83;;;22.20;99.90;;;;;;4939618;29;20469;-70
2022/07/09 10:44:28;;;;;;;1.47;1.47;;;22.20;99.90;;;;;;4951894;28;20495;-71
2022/07/09 10:46:57;;;;;;;1.40;1.40;;;22.40;99.90;;;;;;4961755;28;20941;-70
2022/07/09 10:49:26;;;;;;;1.70;1.63;;;22.60;99.90;;;;;;4966988;28;20537;-70
2022/07/09 10:51:57;;;;;;;1.50;1.50;;;22.60;99.90;;;;;;4953818;28;20981;-70
2022/07/09 10:54:23;;;;;;;2.03;1.93;;;22.40;99.90;;;;;;4954291;28;20549;-70
2022/07/09 10:56:50;;;;;;;1.53;1.53;;;22.30;99.90;;;;;;4938962;29;20461;-70
2022/07/09 10:59:18;;;;;;;1.83;1.83;;;22.20;99.90;;;;;;4940182;29;20496;-70
2022/07/09 11:01:44;;;;;;;1.40;1.40;;;22.10;99.90;;;;;;4960761;28;20518;-70
2022/07/09 11:04:12;;;;;;;1.40;1.40;;;22.10;99.90;;;;;;4961397;28;20495;-72
2022/07/09 11:06:46;;;;;;;2.03;1.80;;;22.10;99.90;;;;;;4959650;28;20460;-69
2022/07/09 11:09:14;;;;;;;2.40;1.60;;;22.10;99.90;;;;;;4935766;29;20461;-70
2022/07/09 11:11:43;;;;;;;1.70;1.63;;;22.10;99.90;;;;;;4952627;29;20489;-70
2022/07/09 11:14:11;;;;;;;2.67;1.37;;;22.20;99.90;;;;;;4948435;29;20524;-71
2022/07/09 11:16:38;;;;;;;2.10;1.43;;;22.40;99.90;;;;;;4955484;28;20472;-71
2022/07/09 11:19:13;;;;;;;1.60;1.50;;;22.60;99.90;;;;;;4962924;28;20472;-70
2022/07/09 11:21:40;;;;;;;1.67;1.67;;;22.80;99.90;;;;;;4947936;29;20973;-71
2022/07/09 11:24:15;;;;;;;1.40;1.40;;;22.90;99.90;;;;;;4939823;29;20490;-71
2022/07/09 11:26:42;;;;;;;1.00;1.00;;;23.00;99.90;;;;;;4942735;29;20453;-70
2022/07/09 11:29:09;;;;;;;1.00;1.00;;;23.00;99.90;;;;;;4953240;29;20457;-69
2022/07/09 11:31:36;;;;;;;1.03;1.03;;;22.90;99.90;;;;;;4940001;29;21001;-71
2022/07/09 11:34:12;;;;;;;1.80;1.20;;;22.90;99.90;;;;;;4952413;28;20483;-71
2022/07/09 11:36:39;;;;;;;4.40;1.30;;;22.80;99.90;;;;;;4974041;28;20459;-70
2022/07/09 11:39:06;;;;;;;1.10;1.10;;;22.90;99.90;;;;;;4955136;28;20475;-70
2022/07/09 11:41:43;;;;;;;1.23;1.23;;;23.10;99.90;;;;;;4949203;28;20464;-70
2022/07/09 11:44:11;;;;;;;1.30;1.30;;;23.40;99.90;;;;;;4939195;28;21061;-70
2022/07/09 11:46:38;;;;;;;0.80;0.80;;;23.50;99.90;;;;;;4935868;29;21227;-71
2022/07/09 11:49:14;;;;;;;1.33;1.23;;;23.50;99.90;;;;;;4949641;28;20473;-71
2022/07/09 11:51:41;;;;;;;2.83;1.30;;;23.30;99.90;;;;;;4956684;28;20475;-71
2022/07/09 11:54:08;;;;;;;0.70;0.70;;;23.30;99.90;;;;;;4943801;28;20493;-70
2022/07/09 11:56:44;;;;;;;1.10;1.10;;;23.00;99.90;;;;;;4960640;28;20470;-70
2022/07/09 11:59:11;;;;;;;1.03;0.93;;;22.80;99.90;;;;;;4950353;28;20873;-70
2022/07/09 12:01:38;;;;;;;1.10;1.10;;;22.60;99.90;;;;;;4958550;28;20562;-71
2022/07/09 12:04:06;;;;;;;1.40;1.30;;;22.10;99.90;;;;;;4959629;28;20534;-70
2022/07/09 12:06:33;;;;;;;2.37;2.17;;;21.40;99.90;;;;;;4946493;28;20462;-68
2022/07/09 12:09:01;;;;;;;1.93;1.90;;;20.60;99.90;;;;;;4934275;29;20481;-69
2022/07/09 12:11:28;;;;;;;1.97;1.97;;;20.10;99.90;;;;;;4935617;28;20461;-70
2022/07/09 12:13:56;;;;;;;2.00;1.87;;;19.70;99.90;;;;;;4947689;28;20535;-70
2022/07/09 12:16:24;;;;;;;1.70;1.60;;;19.50;99.90;;;;;;4958311;28;20992;-70
2022/07/09 12:18:50;;;;;;;1.73;1.60;;;19.40;99.90;;;;;;4939062;28;20480;-70
2022/07/09 12:21:17;;;;;;;0.90;0.90;;;19.50;99.90;;;;;;4933333;29;20493;-70
2022/07/09 12:23:44;;;;;;;1.20;1.17;;;19.40;99.90;;;;;;4933747;29;20485;-69
2022/07/09 12:26:10;;;;;;;2.53;1.10;;;19.30;99.90;;;;;;4932002;29;20547;-69
2022/07/09 12:28:37;;;;;;;1.53;1.30;;;19.20;99.90;;;;;;4941504;28;20495;-69
2022/07/09 12:31:05;;;;;;;1.30;1.20;;;19.20;99.90;;;;;;4948745;29;20831;-69
2022/07/09 12:33:32;;;;;;;1.30;1.30;;;19.20;99.90;;;;;;4942245;29;20500;-69
2022/07/09 12:35:59;;;;;;;1.43;1.40;;;19.30;99.90;;;;;;4937995;29;20461;-69
2022/07/09 12:38:25;;;;;;;1.50;1.40;;;19.40;99.90;;;;;;4950788;28;20476;-69
2022/07/09 12:40:52;;;;;;;1.40;1.40;;;19.50;99.90;;;;;;4950608;28;20586;-69
2022/07/09 12:43:21;;;;;;;1.73;1.67;;;19.50;99.90;;;;;;4938798;28;20473;-69
2022/07/09 12:45:47;;;;;;;1.80;1.70;;;19.50;99.90;;;;;;4943532;29;20505;-69
2022/07/09 12:48:15;;;;;;;1.53;1.43;;;19.50;99.90;;;;;;4945297;28;20477;-69
2022/07/09 12:50:42;;;;;;;1.70;1.60;;;19.70;99.90;;;;;;4954490;28;21027;-68
2022/07/09 12:53:09;;;;;;;1.37;1.37;;;19.90;99.90;;;;;;4950960;28;20763;-69
2022/07/09 12:55:36;;;;;;;1.83;1.83;;;20.00;99.90;;;;;;4944898;28;20481;-69
2022/07/09 12:58:02;;;;;;;1.80;1.80;;;20.10;99.90;;;;;;4952528;28;20913;-69
2022/07/09 13:00:29;;;;;;;1.93;1.93;;;20.20;99.90;;;;;;4946762;28;20489;-69
2022/07/09 13:02:56;;;;;;;1.63;1.63;;;20.40;99.90;;;;;;4949179;28;20930;-69
2022/07/09 13:05:24;;;;;;;1.70;1.70;;;20.60;99.90;;;;;;4936669;29;20865;-69
2022/07/09 13:07:50;;;;;;;2.30;2.20;;;20.80;99.90;;;;;;4932630;29;20469;-69
2022/07/09 13:10:17;;;;;;;2.50;1.90;;;20.80;99.90;;;;;;4936566;29;20955;-68
2022/07/09 13:12:44;;;;;;;1.57;1.53;;;20.90;99.90;;;;;;4954245;28;20472;-69
2022/07/09 13:15:11;;;;;;;1.47;1.47;;;20.90;99.90;;;;;;4956088;28;20492;-69
2022/07/09 13:17:38;;;;;;;1.83;1.83;;;20.90;99.90;;;;;;4952797;28;20476;-69
2022/07/09 13:20:06;;;;;;;2.70;1.93;;;21.00;99.90;;;;;;4951637;28;20484;-69
2022/07/09 13:22:34;;;;;;;1.70;1.60;;;21.10;99.90;;;;;;4940460;29;20462;-68
2022/07/09 13:25:00;;;;;;;1.97;1.47;;;21.30;99.90;;;;;;4933984;29;20494;-69
2022/07/09 13:27:28;;;;;;;1.37;1.27;;;21.20;99.90;;;;;;4953395;28;20529;-69
2022/07/09 13:29:55;;;;;;;1.73;1.63;;;21.40;99.90;;;;;;4954382;28;20557;-69
2022/07/09 13:32:22;;;;;;;1.70;1.60;;;21.40;99.90;;;;;;4944622;29;20465;-69
2022/07/09 13:34:49;;;;;;;1.80;1.70;;;21.50;99.90;;;;;;4951033;29;20484;-69
2022/07/09 13:37:16;;;;;;;2.30;2.20;;;21.50;99.90;;;;;;4936305;29;20461;-69
2022/07/09 13:39:44;;;;;;;1.40;1.40;;;21.40;99.90;;;;;;4932322;28;20547;-69
2022/07/09 13:42:10;;;;;;;1.80;1.70;;;21.40;99.90;;;;;;4956368;28;20505;-69
2022/07/09 13:44:38;;;;;;;1.90;1.80;;;21.20;99.90;;;;;;4937596;28;20486;-69
2022/07/09 13:47:05;;;;;;;1.70;1.60;;;21.20;99.90;;;;;;4933657;29;20556;-69
2022/07/09 13:49:32;;;;;;;1.17;1.17;;;21.20;99.90;;;;;;4932289;29;20529;-69
2022/07/09 13:51:58;;;;;;;1.40;1.40;;;21.20;99.90;;;;;;4933370;29;20464;-69
2022/07/09 13:54:25;;;;;;;2.83;1.53;;;21.30;99.90;;;;;;4937012;28;20847;-68
2022/07/09 13:56:53;;;;;;;2.10;1.60;;;21.20;99.90;;;;;;4956245;28;20464;-69
2022/07/09 13:59:20;;;;;;;1.80;1.60;;;21.40;99.90;;;;;;4964532;28;20895;-69
2022/07/09 14:01:47;;;;;;;1.77;1.57;;;21.50;99.90;;;;;;4933083;29;20486;-69
2022/07/09 14:04:14;;;;;;;1.50;1.50;;;21.60;99.90;;;;;;4954895;28;20497;-69
2022/07/09 14:06:40;;;;;;;1.70;1.20;;;21.70;99.90;;;;;;4956295;28;20460;-69
2022/07/09 14:09:07;;;;;;;1.70;1.60;;;21.70;99.90;;;;;;4957280;28;20663;-68
2022/07/09 14:11:34;;;;;;;1.90;1.20;;;21.70;99.90;;;;;;4954961;28;20477;-68
2022/07/09 14:14:02;;;;;;;1.20;1.20;;;21.50;99.90;;;;;;4951113;28;20492;-68
2022/07/09 14:16:29;;;;;;;1.47;1.37;;;21.40;99.90;;;;;;4951200;28;20464;-68
2022/07/09 14:18:55;;;;;;;1.27;1.27;;;21.20;99.90;;;;;;4950811;28;20762;-68
2022/07/09 14:21:22;;;;;;;1.10;0.93;;;21.10;99.90;;;;;;4948132;29;20511;-68
2022/07/09 14:23:49;;;;;;;1.30;1.30;;;21.00;99.90;;;;;;4965649;28;20492;-68
2022/07/09 14:26:16;;;;;;;2.50;1.10;;;21.10;99.90;;;;;;4960430;28;20866;-68
2022/07/09 14:28:43;;;;;;;1.53;1.20;;;21.20;99.90;;;;;;4954704;29;20467;-68
2022/07/09 14:31:11;;;;;;;1.80;1.23;;;21.20;99.90;;;;;;4954464;29;20460;-68
2022/07/09 14:33:38;;;;;;;1.23;0.90;;;21.50;99.90;;;;;;4951715;29;20460;-68
2022/07/09 14:36:05;;;;;;;1.77;0.93;;;21.50;99.90;;;;;;4948515;29;20464;-68
2022/07/09 14:38:32;;;;;;;1.10;1.10;;;21.40;99.90;;;;;;4961884;28;20476;-68
2022/07/09 14:40:59;;;;;;;1.20;1.20;;;21.10;99.90;;;;;;4951508;29;20484;-68
2022/07/09 14:43:26;;;;;;;1.87;1.20;;;21.00;99.90;;;;;;4944443;29;20461;-68
2022/07/09 14:45:53;;;;;;;1.40;1.30;;;20.90;99.90;;;;;;4935358;29;20473;-68
2022/07/09 14:48:21;;;;;;;3.23;1.00;;;20.80;99.90;;;;;;4935856;29;21244;-68
2022/07/09 14:50:48;;;;;;;3.27;1.10;;;20.80;99.90;;;;;;4945016;28;20952;-68
2022/07/09 14:53:15;;;;;;;2.00;1.43;;;20.70;99.90;;;;;;4966096;28;20836;-68
2022/07/09 14:55:41;;;;;;;1.30;1.20;;;20.70;99.90;;;;;;4962942;28;20481;-68
2022/07/09 14:58:08;;;;;;;0.90;0.90;;;20.60;99.90;;;;;;4935884;29;20465;-68
2022/07/09 15:00:35;;;;;;;2.60;1.50;;;20.60;99.90;;;;;;4937144;29;20485;-68
2022/07/09 15:03:01;;;;;;;1.07;1.07;;;20.60;99.90;;;;;;4938355;29;20468;-68
2022/07/09 15:05:29;;;;;;;2.87;1.40;;;20.70;99.90;;;;;;4948285;28;20484;-68
2022/07/09 15:07:56;;;;;;;1.80;1.70;;;20.80;99.90;;;;;;4953502;28;20476;-69
2022/07/09 15:10:24;;;;;;;3.93;1.17;;;20.70;99.90;;;;;;4942979;28;20473;-69
2022/07/09 15:12:51;;;;;;;4.00;1.50;;;20.60;99.90;;;;;;4944998;29;20539;-69
2022/07/09 15:15:17;;;;;;;2.67;1.27;;;20.40;99.90;;;;;;4948161;29;20489;-69
2022/07/09 15:17:44;;;;;;;1.60;1.30;;;20.50;99.90;;;;;;4942398;29;20469;-69
2022/07/09 15:20:12;;;;;;;1.70;1.20;;;20.60;99.90;;;;;;4948638;28;20478;-69
2022/07/09 15:22:40;;;;;;;1.63;0.97;;;20.30;99.90;;;;;;4951980;28;20843;-69
2022/07/09 15:25:10;;;;;;;3.87;1.47;;;20.40;99.90;;;;;;4950270;29;21016;-69
2022/07/09 15:27:37;;;;;;;1.67;1.53;;;20.60;99.90;;;;;;4952073;29;20469;-69
2022/07/09 15:30:05;;;;;;;18.33;2.27;;;20.70;99.90;;;;;;4948467;29;20931;-69
2022/07/09 15:32:32;;;;;;;1.10;1.10;;;20.80;99.90;;;;;;4936149;29;20461;-69
2022/07/09 15:34:59;;;;;;;0.80;0.80;;;20.80;99.90;;;;;;4957658;28;20496;-69
2022/07/09 15:37:26;;;;;;;0.80;0.80;;;20.90;99.90;;;;;;4965336;28;20460;-68
2022/07/09 15:39:54;;;;;;;1.60;1.17;;;21.10;99.90;;;;;;4948518;28;20484;-69
2022/07/09 15:42:21;;;;;;;4.20;1.30;;;21.10;99.90;;;;;;4959438;28;20865;-69
2022/07/09 15:44:47;;;;;;;5.10;1.50;;;21.10;99.90;;;;;;4962968;28;20480;-69
2022/07/09 15:47:14;;;;;;;1.60;1.50;;;20.90;99.90;;;;;;4934374;29;20473;-69
2022/07/09 15:49:41;;;;;;;1.90;1.00;;;20.80;99.90;;;;;;4933926;29;20480;-69
2022/07/09 15:52:07;;;;;;;1.77;1.40;;;20.90;99.90;;;;;;4934332;29;20466;-69
2022/07/09 15:54:34;;;;;;;3.13;1.60;;;20.90;99.90;;;;;;4938204;28;20978;-69
2022/07/09 15:57:02;;;;;;;3.67;1.23;;;21.00;99.90;;;;;;4953582;28;20461;-69
2022/07/09 15:59:29;;;;;;;1.73;1.03;;;20.90;99.90;;;;;;4937325;29;20461;-69
2022/07/09 16:01:56;;;;;;;2.37;1.20;;;21.00;99.90;;;;;;4934793;29;20489;-69
2022/07/09 16:04:23;;;;;;;2.80;1.20;;;21.10;99.90;;;;;;4934392;29;20583;-69
2022/07/09 16:06:50;;;;;;;1.57;1.00;;;20.90;99.90;;;;;;4934599;29;20472;-69
2022/07/09 16:09:16;;;;;;;2.63;1.50;;;20.80;99.90;;;;;;4948682;28;20487;-69
2022/07/09 16:14:29;;;;;;;1.90;0.80;;;20.80;99.90;;;;;;4970193;23;20509;-66
2022/07/09 16:16:56;;;;;;;2.43;1.00;;;20.70;99.90;;;;;;4960905;28;20479;-66
2022/07/09 16:19:23;;;;;;;1.87;0.73;;;20.90;99.90;;;;;;4955646;28;20503;-67
2022/07/09 16:21:49;;;;;;;3.30;0.70;;;20.80;99.90;;;;;;4970729;28;20529;-67
2022/07/09 16:24:16;;;;;;;1.03;0.67;;;20.80;99.90;;;;;;4960426;28;20499;-67
2022/07/09 16:26:43;;;;;;;4.40;1.00;;;20.90;99.90;;;;;;4949912;29;20476;-66
2022/07/09 16:29:10;;;;;;;1.30;0.67;;;20.90;99.90;;;;;;4952919;29;20492;-67
2022/07/09 16:31:39;;;;;;;1.10;0.63;;;20.90;99.90;;;;;;4937972;29;20681;-65
2022/07/09 16:34:06;;;;;;;0.73;0.70;;;20.80;99.90;;;;;;4951885;28;21035;-66
2022/07/09 16:36:33;;;;;;;1.70;0.87;;;20.60;99.90;;;;;;4952057;29;20469;-66
2022/07/09 16:38:59;;;;;;;1.00;1.00;;;20.50;99.90;;;;;;4952674;29;20467;-66
2022/07/09 16:41:26;;;;;;;1.70;0.77;;;20.50;99.90;;;;;;4952516;29;20489;-66
2022/07/09 16:43:53;;;;;;;2.30;0.97;;;20.30;99.90;;;;;;4950580;28;20487;-66
2022/07/09 16:46:20;;;;;;;1.43;0.80;;;20.10;99.90;;;;;;4948760;28;20461;-67
2022/07/09 16:48:48;;;;;;;3.27;0.80;;;19.90;99.90;;;;;;4952370;29;20548;-66
2022/07/09 16:51:16;;;;;;;1.27;0.57;;;19.70;99.90;;;;;;4951215;29;20465;-65
2022/07/09 16:53:44;;;;;;;1.33;0.90;;;19.50;99.90;;;;;;4952364;29;20978;-65
2022/07/09 16:56:11;;;;;;;1.30;1.20;;;19.40;99.90;;;;;;4952015;29;20465;-65